• Join FlightAware (Why Join?)
  • Login
  • US Flag 
11:48AM EDT


 

Airport Tracker/Info


-or-


 

Live Flight TrackerFlight Track Log ✈ EGF4094 ✈ 26-May-2013 ✈ KORD - KCMH

Flight Track Log - Related Links

Times and Time Zones

All times are in EDT time to prevent confusion due to time zone crossing. See the EGF4094 flight status page for this flight to view local times or setup timezone preferences in your user account.

Time Position Orientation Groundspeed Altitude Reporting Facility
EDT Latitude Longitude Course Direction KTS MPH feet Rate Location/Type
09:01PM 41.9333 -87.9000 90° East 188 216 2,400  Level Chicago TRACON
09:02PM 41.9167 -87.8167 105° East 218 251 4,900 2,220 Climbing Chicago TRACON
09:03PM 41.9602 -87.4684 98° East  Level FlightAware Approximate
09:03PM 41.9167 -87.7333 90° East 268 308 6,700  Level Chicago TRACON
09:04PM 41.9471 -87.3254 95° East  Level FlightAware Approximate
09:04PM 41.9219 -87.6244 86° East 277 319 9,300  Level Chicago Center
09:05PM 41.9369 -87.1821 95° East  Level FlightAware Approximate
09:05PM 41.9292 -87.5153 85° East 292 336 11,100  Level Chicago Center
09:06PM 41.9333 -87.0529 90° East  Level FlightAware Approximate
09:06PM 41.9303 -87.3939 89° East 319 367 13,200  Level Chicago Center
09:07PM 41.9358 -87.2642 87° East 352 405 14,200 960 Climbing Chicago Center
09:08PM 41.9203 -87.1236 98° East 377 434 15,200 1,080 Climbing Chicago Center
09:09PM 41.9033 -86.9528 98° East 387 445 16,500 1,080 Climbing Chicago Center
09:10PM 41.8881 -86.8039 98° East 395 455 17,500 780 Climbing Chicago Center
09:11PM 41.8714 -86.6483 98° East 417 480 18,200 840 Climbing Chicago Center
09:12PM 41.8547 -86.4883 98° East 432 497 19,300 1,020 Climbing Chicago Center
09:13PM 41.8367 -86.3236 98° East 441 507 20,300 960 Climbing Chicago Center
09:14PM 41.8192 -86.1575 98° East 448 516 21,300 960 Climbing Chicago Center
09:15PM 41.8003 -85.9869 98° East 459 528 22,300 960 Climbing Chicago Center
09:16PM 41.7814 -85.8183 98° East 460 529 23,300 960 Climbing Chicago Center
09:17PM 41.7619 -85.6472 99° East 462 532 24,300 780 Climbing Chicago Center
09:18PM 41.6844 -85.5189 129° Southeast 460 529 25,000 300 Climbing Chicago Center
09:19PM 41.5631 -85.4122 147° Southeast 463 533 25,000  Level Chicago Center
09:20PM 41.4511 -85.3106 146° Southeast 482 555 25,000  Level Chicago Center
09:21PM 41.3375 -85.2064 145° Southeast 494 568 25,000  Level Chicago Center
09:22PM 41.2244 -85.1061 146° Southeast 494 568 25,000  Level Chicago Center
09:23PM 41.1111 -85.0053 146° Southeast 491 565 25,000  Level Chicago Center
09:24PM 40.9975 -84.9058 147° Southeast 491 565 25,000  Level Chicago Center
09:25PM 40.8844 -84.8064 146° Southeast 490 564 25,000  Level Chicago Center
09:26PM 40.8136 -84.6519 121° Southeast 497 572 25,000  Level Chicago Center
09:27PM 40.7683 -84.5056 112° Southeast 493 567 25,000 -420 Level Indianapolis Center
09:28PM 40.7167 -84.3375 112° Southeast 491 565 24,300 -1,680 Descending Indianapolis Center
09:29PM 40.6653 -84.1708 112° Southeast 487 560 21,700 -2,580 Descending Indianapolis Center
09:30PM 40.6153 -84.0139 113° Southeast 465 535 19,100 -2,400 Descending Indianapolis Center
09:31PM 40.5692 -83.8694 113° Southeast 431 496 16,900 -2,340 Descending Indianapolis Center
09:32PM 40.5253 -83.7294 112° Southeast 413 475 14,400 -2,340 Descending Indianapolis Center
09:33PM 40.4869 -83.6156 114° Southeast 400 460 12,600 -1,740 Descending Indianapolis Center
09:34PM 40.4444 -83.4786 112° Southeast 380 437 11,300 -1,020 Descending Indianapolis Center
09:35PM 40.3808 -83.3722 128° Southeast 366 421 10,600 -660 Descending Indianapolis Center
09:36PM 40.3103 -83.2761 134° Southeast 373 429 10,000 -300 Descending Indianapolis Center
09:37PM 40.2392 -83.1831 135° Southeast 364 419 10,000  Level Indianapolis Center
09:38PM 40.1683 -83.0875 134° Southeast 361 415 10,000 -360 Level Indianapolis Center
09:39PM 40.1442 -82.9808 106° East 288 331 9,300 -1,260 Descending Indianapolis Center
09:40PM 40.1261 -82.8781 103° East 275 316 7,500 -1,800 Descending Indianapolis Center